createdAt,value
2023-04-04T00:00:42.064Z,4.43
2023-04-04T00:02:03.216Z,4.10
2023-04-04T00:03:24.171Z,4.93
2023-04-04T00:04:44.944Z,4.60
2023-04-04T00:11:13.762Z,4.28
2023-04-04T00:12:34.667Z,3.88
2023-04-04T00:13:55.043Z,4.72
2023-04-04T00:15:17.176Z,3.83
2023-04-04T00:16:34.456Z,3.80
2023-04-04T00:17:54.928Z,4.07
2023-04-04T00:19:15.596Z,3.95
2023-04-04T00:20:36.509Z,4.05
2023-04-04T00:21:57.150Z,4.35
2023-04-04T00:23:17.847Z,4.82
2023-04-04T00:24:38.138Z,3.92
2023-04-04T00:25:58.697Z,3.57
2023-04-04T00:28:17.573Z,4.47
2023-04-04T00:29:38.153Z,4.43
2023-04-04T00:31:00.749Z,4.05
2023-04-04T00:32:21.765Z,4.30
2023-04-04T00:33:42.441Z,4.28
2023-04-04T00:35:03.004Z,4.20
2023-04-04T00:36:26.269Z,4.13
2023-04-04T00:37:47.045Z,4.40
2023-04-04T00:39:07.682Z,3.95
2023-04-04T00:40:28.451Z,4.68
2023-04-04T00:41:49.177Z,3.93
2023-04-04T00:43:10.037Z,3.97
2023-04-04T00:44:32.029Z,4.45
2023-04-04T00:45:52.833Z,4.00
2023-04-04T00:47:16.082Z,4.20
2023-04-04T00:48:36.413Z,4.00
2023-04-04T00:49:56.994Z,4.00
2023-04-04T00:51:17.530Z,4.38
2023-04-04T00:52:38.354Z,4.38
2023-04-04T00:54:01.010Z,4.53
2023-04-04T00:55:22.735Z,6.70
2023-04-04T00:58:04.650Z,6.55
2023-04-04T00:59:26.462Z,5.25
2023-04-04T01:00:47.870Z,4.82
2023-04-04T01:02:08.717Z,4.93
2023-04-04T01:03:32.823Z,5.05
2023-04-04T01:04:53.704Z,6.45
2023-04-04T01:06:14.836Z,6.32
2023-04-04T01:07:37.074Z,8.43
2023-04-04T01:08:57.773Z,8.27
2023-04-04T01:10:18.633Z,7.82
2023-04-04T01:11:39.248Z,8.90
2023-04-04T01:13:00.491Z,9.95
2023-04-04T01:14:20.919Z,10.57
2023-04-04T01:15:41.525Z,11.38
2023-04-04T01:17:02.375Z,11.40
2023-04-04T01:18:27.076Z,12.20
2023-04-04T01:19:59.402Z,10.50
2023-04-04T01:21:20.377Z,9.60
2023-04-04T01:22:41.353Z,7.47
2023-04-04T01:24:02.832Z,7.05
2023-04-04T01:25:32.896Z,6.40
2023-04-04T01:26:53.379Z,5.85
2023-04-04T01:28:13.979Z,5.20
2023-04-04T01:29:35.590Z,5.10
2023-04-04T01:30:56.431Z,4.82
2023-04-04T01:32:21.313Z,4.60
2023-04-04T01:33:46.337Z,4.70
2023-04-04T01:35:14.006Z,5.47
2023-04-04T01:36:39.544Z,4.75
2023-04-04T01:38:14.945Z,4.82
2023-04-04T01:39:39.331Z,4.78
2023-04-04T01:41:03.968Z,5.45
2023-04-04T01:42:25.664Z,4.57
2023-04-04T01:43:46.490Z,4.65
2023-04-04T01:45:08.471Z,4.57
2023-04-04T01:46:29.726Z,5.07
2023-04-04T01:47:51.824Z,5.32
2023-04-04T01:49:12.760Z,5.03
2023-04-04T01:50:33.374Z,4.53
2023-04-04T01:51:55.236Z,4.80
2023-04-04T01:53:16.019Z,4.38
2023-04-04T01:54:37.876Z,5.47
2023-04-04T01:55:58.789Z,5.10
2023-04-04T01:57:20.754Z,5.10
2023-04-04T01:58:41.507Z,5.93
2023-04-04T02:00:07.769Z,6.05
2023-04-04T02:01:28.667Z,6.50
2023-04-04T02:02:50.315Z,6.93
2023-04-04T02:04:11.270Z,7.20
2023-04-04T02:05:35.290Z,7.55
2023-04-04T02:06:56.241Z,8.65
2023-04-04T02:08:16.994Z,9.05
2023-04-04T02:09:37.834Z,10.77
2023-04-04T02:10:58.638Z,8.82
2023-04-04T02:12:20.433Z,6.72
2023-04-04T02:13:41.178Z,6.15
2023-04-04T02:15:01.655Z,5.75
2023-04-04T02:16:22.264Z,6.53
2023-04-04T02:17:50.268Z,5.75
2023-04-04T02:19:12.802Z,6.50
2023-04-04T02:20:36.915Z,5.43
2023-04-04T02:22:00.123Z,5.22
2023-04-04T02:23:21.170Z,5.82
2023-04-04T02:24:41.679Z,6.43
2023-04-04T02:26:02.231Z,7.38
2023-04-04T02:27:23.814Z,7.38
2023-04-04T02:28:44.392Z,7.85
2023-04-04T02:30:05.855Z,7.60
2023-04-04T02:31:26.197Z,7.95
2023-04-04T02:32:46.748Z,8.47
2023-04-04T02:34:07.774Z,8.30
2023-04-04T02:35:29.321Z,8.30
2023-04-04T02:36:50.269Z,7.47
2023-04-04T02:38:10.966Z,5.95
2023-04-04T02:39:32.496Z,6.78
2023-04-04T02:40:55.276Z,5.80
2023-04-04T02:42:16.234Z,5.20
2023-04-04T02:43:38.652Z,5.90
2023-04-04T02:44:59.097Z,5.20
2023-04-04T02:46:22.037Z,5.22
2023-04-04T02:47:42.966Z,5.10
2023-04-04T02:49:03.618Z,5.32
2023-04-04T02:50:26.970Z,5.32
2023-04-04T02:51:47.713Z,5.53
2023-04-04T02:53:07.927Z,5.10
2023-04-04T02:54:29.907Z,5.43
2023-04-04T02:55:50.848Z,5.32
2023-04-04T02:57:11.609Z,5.38
2023-04-04T02:58:32.411Z,4.80
2023-04-04T02:59:54.304Z,5.15
2023-04-04T03:01:15.072Z,5.32
2023-04-04T03:02:35.896Z,5.15
2023-04-04T03:03:56.561Z,5.80
2023-04-04T03:05:17.653Z,5.07
2023-04-04T03:06:38.254Z,5.50
2023-04-04T03:08:00.328Z,5.10
2023-04-04T03:09:21.762Z,4.65
2023-04-04T03:10:42.463Z,5.40
2023-04-04T03:12:02.877Z,5.75
2023-04-04T03:13:23.888Z,4.43
2023-04-04T03:14:45.281Z,4.93
2023-04-04T03:16:07.684Z,5.18
2023-04-04T03:17:28.533Z,5.45
2023-04-04T03:18:49.461Z,5.10
2023-04-04T03:20:11.659Z,4.85
2023-04-04T03:21:32.123Z,5.03
2023-04-04T03:22:55.495Z,5.00
2023-04-04T03:24:17.574Z,6.13
2023-04-04T03:25:38.109Z,6.13
2023-04-04T03:26:59.933Z,6.70
2023-04-04T03:28:20.291Z,5.97
2023-04-04T03:29:41.041Z,5.80
2023-04-04T03:31:04.309Z,7.15
2023-04-04T03:32:27.458Z,5.85
2023-04-04T03:33:48.309Z,5.97
2023-04-04T03:35:11.817Z,5.47
2023-04-04T03:36:32.354Z,5.28
2023-04-04T03:37:52.871Z,5.43
2023-04-04T03:39:15.064Z,4.97
2023-04-04T03:40:35.855Z,5.85
2023-04-04T03:41:57.142Z,5.45
2023-04-04T03:43:17.559Z,6.05
2023-04-04T03:44:40.155Z,5.18
2023-04-04T03:46:01.355Z,5.55
2023-04-04T03:47:22.015Z,6.10
2023-04-04T03:48:45.245Z,5.72
2023-04-04T03:50:06.646Z,5.43
2023-04-04T03:51:27.297Z,5.72
2023-04-04T03:52:47.883Z,5.50
2023-04-04T03:54:08.682Z,5.43
2023-04-04T03:55:29.038Z,5.70
2023-04-04T03:56:49.500Z,6.72
2023-04-04T03:58:10.269Z,5.60
2023-04-04T03:59:30.936Z,5.97
2023-04-04T04:00:51.682Z,5.75
2023-04-04T04:02:12.654Z,5.72
2023-04-04T04:03:33.574Z,6.05
2023-04-04T04:04:58.468Z,6.25
2023-04-04T04:06:19.278Z,5.75
2023-04-04T04:07:43.249Z,6.05
2023-04-04T04:09:05.143Z,5.80
2023-04-04T04:11:48.237Z,5.85
2023-04-04T04:14:29.674Z,5.30
2023-04-04T04:15:50.439Z,6.05
2023-04-04T04:17:10.968Z,5.88
2023-04-04T04:18:34.620Z,5.70
2023-04-04T04:19:58.091Z,5.75
2023-04-04T04:21:25.917Z,6.25
2023-04-04T04:22:46.741Z,6.43
2023-04-04T04:24:07.732Z,5.22
2023-04-04T04:25:28.476Z,6.07
2023-04-04T04:26:48.676Z,6.15
2023-04-04T04:28:09.800Z,6.25
2023-04-04T04:29:37.732Z,6.03
2023-04-04T04:31:04.672Z,5.60
2023-04-04T04:32:26.776Z,6.32
2023-04-04T04:33:47.390Z,6.20
2023-04-04T04:35:11.155Z,5.60
2023-04-04T04:36:32.017Z,6.00
2023-04-04T04:37:53.248Z,5.45
2023-04-04T04:39:13.946Z,5.70
2023-04-04T04:40:34.598Z,6.05
2023-04-04T04:41:55.282Z,5.45
2023-04-04T04:43:15.958Z,6.10
2023-04-04T04:44:36.685Z,6.05
2023-04-04T04:45:57.296Z,6.18
2023-04-04T04:47:18.014Z,6.10
2023-04-04T04:48:38.595Z,5.90
2023-04-04T04:49:59.220Z,5.37
2023-04-04T04:51:21.303Z,5.68
2023-04-04T04:52:42.047Z,5.97
2023-04-04T04:54:02.896Z,5.43
2023-04-04T04:55:23.690Z,5.47
2023-04-04T04:56:44.371Z,5.93
2023-04-04T04:58:04.927Z,6.40
2023-04-04T04:59:25.766Z,6.10
2023-04-04T05:00:46.394Z,5.00
2023-04-04T05:02:07.365Z,5.82
2023-04-04T05:03:28.004Z,6.45
2023-04-04T05:04:48.765Z,6.15
2023-04-04T05:06:09.127Z,6.00
2023-04-04T05:07:30.989Z,6.35
2023-04-04T05:08:51.745Z,6.15
2023-04-04T05:10:12.538Z,6.28
2023-04-04T05:11:33.181Z,6.25
2023-04-04T05:12:53.856Z,6.85
2023-04-04T05:14:14.456Z,5.97
2023-04-04T05:15:35.343Z,6.47
2023-04-04T05:16:56.051Z,6.32
2023-04-04T05:18:17.065Z,6.07
2023-04-04T05:19:37.937Z,6.10
2023-04-04T05:20:58.583Z,6.88
2023-04-04T05:22:19.152Z,7.03
2023-04-04T05:23:41.047Z,7.33
2023-04-04T05:25:01.911Z,7.50
2023-04-04T05:26:22.554Z,6.47
2023-04-04T05:27:46.911Z,6.50
2023-04-04T05:29:07.655Z,6.80
2023-04-04T05:30:28.640Z,7.20
2023-04-04T05:31:49.558Z,6.30
2023-04-04T05:33:10.294Z,6.75
2023-04-04T05:34:30.980Z,6.57
2023-04-04T05:35:51.741Z,6.82
2023-04-04T05:37:12.457Z,7.32
2023-04-04T05:38:33.350Z,6.18
2023-04-04T05:39:55.418Z,6.78
2023-04-04T05:41:15.959Z,6.55
2023-04-04T05:42:36.589Z,7.40
2023-04-04T05:43:57.106Z,6.45
2023-04-04T05:45:17.831Z,6.35
2023-04-04T05:46:38.971Z,6.60
2023-04-04T05:47:59.539Z,7.15
2023-04-04T05:49:20.272Z,7.38
2023-04-04T05:50:41.355Z,7.07
2023-04-04T05:52:01.968Z,6.68
2023-04-04T05:53:22.523Z,7.43
2023-04-04T05:54:43.652Z,7.38
2023-04-04T05:56:05.868Z,6.68
2023-04-04T05:57:26.021Z,7.50
2023-04-04T05:58:46.559Z,6.75
2023-04-04T06:00:08.804Z,6.70
2023-04-04T06:01:29.691Z,6.95
2023-04-04T06:02:50.777Z,7.32
2023-04-04T06:05:32.484Z,7.03
2023-04-04T06:06:52.944Z,7.20
2023-04-04T06:08:13.740Z,7.25
2023-04-04T06:09:34.794Z,8.25
2023-04-04T06:10:55.548Z,7.88
2023-04-04T06:12:17.510Z,7.40
2023-04-04T06:13:37.965Z,8.15
2023-04-04T06:14:58.645Z,7.90
2023-04-04T06:16:19.369Z,8.27
2023-04-04T06:17:40.200Z,9.25
2023-04-04T06:19:00.874Z,9.63
2023-04-04T06:20:21.593Z,10.05
2023-04-04T06:21:42.319Z,9.75
2023-04-04T06:23:02.858Z,8.93
2023-04-04T06:24:23.731Z,8.70
2023-04-04T06:25:44.302Z,8.03
2023-04-04T06:27:05.002Z,8.20
2023-04-04T06:28:26.826Z,7.20
2023-04-04T06:29:47.487Z,9.27
2023-04-04T06:31:08.231Z,7.50
2023-04-04T06:32:29.037Z,8.75
2023-04-04T06:33:49.572Z,7.93
2023-04-04T06:35:10.099Z,8.37
2023-04-04T06:36:30.804Z,8.23
2023-04-04T06:37:55.742Z,8.73
2023-04-04T06:39:16.228Z,8.60
2023-04-04T06:40:36.950Z,8.13
2023-04-04T06:41:57.673Z,7.95
2023-04-04T06:43:18.539Z,8.30
2023-04-04T06:44:40.888Z,7.30
2023-04-04T06:46:02.265Z,8.07
2023-04-04T06:47:22.850Z,7.30
2023-04-04T06:48:43.726Z,8.10
2023-04-04T06:50:04.643Z,7.70
2023-04-04T06:51:25.588Z,7.43
2023-04-04T06:52:46.012Z,7.53
2023-04-04T06:54:07.064Z,7.82
2023-04-04T06:55:27.841Z,7.68
2023-04-04T06:56:48.593Z,7.38
2023-04-04T06:58:09.204Z,6.93
2023-04-04T06:59:29.968Z,7.17
2023-04-04T07:00:52.515Z,7.85
2023-04-04T07:02:13.236Z,6.68
2023-04-04T07:03:33.970Z,7.50
2023-04-04T07:04:54.659Z,7.72
2023-04-04T07:06:15.231Z,6.90
2023-04-04T07:07:36.044Z,6.45
2023-04-04T07:08:56.809Z,7.00
2023-04-04T07:10:17.396Z,7.32
2023-04-04T07:11:38.035Z,6.28
2023-04-04T07:12:58.865Z,6.70
2023-04-04T07:14:19.560Z,6.68
2023-04-04T07:15:40.414Z,7.75
2023-04-04T07:17:10.704Z,6.07
2023-04-04T07:18:38.094Z,6.30
2023-04-04T07:19:58.786Z,6.47
2023-04-04T07:21:19.497Z,5.80
2023-04-04T07:22:40.805Z,6.25
2023-04-04T07:24:01.375Z,6.07
2023-04-04T07:25:22.295Z,5.38
2023-04-04T07:26:42.967Z,5.28
2023-04-04T07:28:12.345Z,5.50
2023-04-04T07:29:34.190Z,5.13
2023-04-04T07:30:54.718Z,5.82
2023-04-04T07:32:16.347Z,5.63
2023-04-04T07:33:37.142Z,6.68
2023-04-04T07:34:57.911Z,6.53
2023-04-04T07:36:18.361Z,5.47
2023-04-04T07:37:39.185Z,5.88
2023-04-04T07:38:59.965Z,5.70
2023-04-04T07:40:20.574Z,5.78
2023-04-04T07:41:41.438Z,6.72
2023-04-04T07:43:02.105Z,5.65
2023-04-04T07:44:22.788Z,6.13
2023-04-04T07:45:43.687Z,5.90
2023-04-04T07:47:09.694Z,6.03
2023-04-04T07:48:32.596Z,5.82
2023-04-04T07:49:53.365Z,6.10
2023-04-04T07:51:14.077Z,6.05
2023-04-04T07:52:34.954Z,6.28
2023-04-04T07:53:56.165Z,5.20
2023-04-04T07:55:17.224Z,5.50
2023-04-04T07:56:37.828Z,5.50
2023-04-04T07:57:58.542Z,5.05
2023-04-04T07:59:19.147Z,5.30
2023-04-04T08:00:39.806Z,5.45
2023-04-04T08:02:00.655Z,5.45
2023-04-04T08:03:21.783Z,4.80
2023-04-04T08:04:44.176Z,5.18
2023-04-04T08:06:04.747Z,4.78
2023-04-04T08:07:25.498Z,4.50
2023-04-04T08:08:46.283Z,5.10
2023-04-04T08:10:08.666Z,4.97
2023-04-04T08:11:29.305Z,4.70
2023-04-04T08:12:49.916Z,5.18
2023-04-04T08:14:10.663Z,4.88
2023-04-04T08:15:31.221Z,4.53
2023-04-04T08:16:52.013Z,4.75
2023-04-04T08:18:12.793Z,4.95
2023-04-04T08:19:33.599Z,3.90
2023-04-04T08:20:56.035Z,4.35
2023-04-04T08:22:16.873Z,4.00
2023-04-04T08:23:37.712Z,4.03
2023-04-04T08:25:01.093Z,4.18
2023-04-04T08:26:21.722Z,4.03
2023-04-04T08:27:42.432Z,4.43
2023-04-04T08:29:03.797Z,4.68
2023-04-04T08:30:24.317Z,5.00
2023-04-04T08:31:45.142Z,4.50
2023-04-04T08:33:06.510Z,3.88
2023-04-04T08:35:47.897Z,3.90
2023-04-04T08:37:09.859Z,3.13
2023-04-04T08:38:30.354Z,3.30
2023-04-04T08:39:51.074Z,3.60
2023-04-04T08:41:12.336Z,3.88
2023-04-04T08:42:34.066Z,4.38
2023-04-04T08:43:54.662Z,3.80
2023-04-04T08:45:17.606Z,4.35
2023-04-04T08:46:38.335Z,4.55
2023-04-04T08:47:59.202Z,4.53
2023-04-04T08:49:20.316Z,4.43
2023-04-04T08:50:44.744Z,4.30
2023-04-04T08:52:05.879Z,3.70
2023-04-04T08:53:28.829Z,4.25
2023-04-04T08:54:51.387Z,4.10
2023-04-04T08:56:12.210Z,4.25
2023-04-04T08:57:32.771Z,4.05
2023-04-04T08:58:53.537Z,3.95
2023-04-04T09:00:15.268Z,3.88
2023-04-04T09:01:36.034Z,4.00
2023-04-04T09:03:13.505Z,4.60
2023-04-04T09:04:34.120Z,4.40
2023-04-04T09:05:55.206Z,4.28
2023-04-04T09:07:15.961Z,4.47
2023-04-04T09:08:37.783Z,4.68
2023-04-04T09:09:58.805Z,5.00
2023-04-04T09:11:21.857Z,4.80
2023-04-04T09:12:44.282Z,4.53
2023-04-04T09:14:04.687Z,4.35
2023-04-04T09:15:25.533Z,4.23
2023-04-04T09:16:46.536Z,4.55
2023-04-04T09:18:07.334Z,5.00
2023-04-04T09:19:28.133Z,4.60
2023-04-04T09:20:49.103Z,4.85
2023-04-04T09:22:09.889Z,4.15
2023-04-04T09:23:30.382Z,4.37
2023-04-04T09:24:53.068Z,4.10
2023-04-04T09:26:13.523Z,4.15
2023-04-04T09:27:34.085Z,4.07
2023-04-04T09:28:55.172Z,4.35
2023-04-04T09:30:16.210Z,4.40
2023-04-04T09:31:36.764Z,4.57
2023-04-04T09:33:01.049Z,4.20
2023-04-04T09:34:21.760Z,4.60
2023-04-04T09:35:45.901Z,4.60
2023-04-04T09:37:06.758Z,4.25
2023-04-04T09:38:29.034Z,4.45
2023-04-04T09:39:49.975Z,4.75
2023-04-04T09:41:14.760Z,4.43
2023-04-04T09:42:35.338Z,4.05
2023-04-04T09:43:57.838Z,4.22
2023-04-04T09:45:25.928Z,4.00
2023-04-04T09:46:52.764Z,4.53
2023-04-04T09:48:13.616Z,3.90
2023-04-04T09:49:34.259Z,4.15
2023-04-04T09:50:55.176Z,4.00
2023-04-04T09:52:18.522Z,4.22
2023-04-04T09:53:39.740Z,4.20
2023-04-04T09:55:01.823Z,4.45
2023-04-04T09:56:23.703Z,4.82
2023-04-04T09:57:45.995Z,4.57
2023-04-04T09:59:06.940Z,4.55
2023-04-04T10:00:29.286Z,4.90
2023-04-04T10:01:50.324Z,4.70
2023-04-04T10:03:13.044Z,4.90
2023-04-04T10:04:35.631Z,4.35
2023-04-04T10:05:59.281Z,4.95
2023-04-04T10:07:19.803Z,4.63
2023-04-04T10:08:40.812Z,4.40
2023-04-04T10:10:01.967Z,4.55
2023-04-04T10:11:30.963Z,4.68
2023-04-04T10:12:52.594Z,4.78
2023-04-04T10:14:13.126Z,4.90
2023-04-04T10:15:36.101Z,4.90
2023-04-04T10:16:57.104Z,4.60
2023-04-04T10:18:18.767Z,4.85
2023-04-04T10:21:12.294Z,4.90
2023-04-04T10:22:36.367Z,4.47
2023-04-04T10:25:17.844Z,4.35
2023-04-04T10:26:39.977Z,4.97
2023-04-04T10:28:00.460Z,4.72
2023-04-04T10:29:21.189Z,4.60
2023-04-04T10:30:55.759Z,4.10
2023-04-04T10:32:28.229Z,4.47
2023-04-04T10:33:56.137Z,4.22
2023-04-04T10:35:18.066Z,4.70
2023-04-04T10:36:45.499Z,4.45
2023-04-04T10:38:06.369Z,4.57
2023-04-04T10:39:29.820Z,4.78
2023-04-04T10:40:50.507Z,4.65
2023-04-04T10:42:14.938Z,4.47
2023-04-04T10:43:35.693Z,4.30
2023-04-04T10:44:56.263Z,3.95
2023-04-04T10:46:18.990Z,4.30
2023-04-04T10:47:41.304Z,4.10
2023-04-04T10:49:02.575Z,4.88
2023-04-04T10:50:23.351Z,4.40
2023-04-04T10:51:54.878Z,4.43
2023-04-04T10:53:16.634Z,4.63
2023-04-04T10:54:37.438Z,4.63
2023-04-04T10:55:58.696Z,4.57
2023-04-04T10:57:20.538Z,4.40
2023-04-04T10:58:41.669Z,4.55
2023-04-04T11:00:04.336Z,4.40
2023-04-04T11:01:47.265Z,5.00
2023-04-04T11:03:07.656Z,4.25
2023-04-04T11:04:32.682Z,4.35
2023-04-04T11:05:53.854Z,4.88
2023-04-04T11:07:16.279Z,4.03
2023-04-04T11:08:40.200Z,4.10
2023-04-04T11:10:01.428Z,4.40
2023-04-04T11:11:23.147Z,4.50
2023-04-04T11:12:46.030Z,4.47
2023-04-04T11:14:06.725Z,5.25
2023-04-04T11:15:27.420Z,4.82
2023-04-04T11:16:51.788Z,4.35
2023-04-04T11:18:27.067Z,5.07
2023-04-04T11:19:59.151Z,4.80
2023-04-04T11:21:20.670Z,4.60
2023-04-04T11:22:41.429Z,4.80
2023-04-04T11:24:14.662Z,4.35
2023-04-04T11:25:36.920Z,4.53
2023-04-04T11:26:57.535Z,4.45
2023-04-04T11:28:43.671Z,4.75
2023-04-04T11:30:12.812Z,4.55
2023-04-04T11:31:34.217Z,5.03
2023-04-04T11:33:06.576Z,4.43
2023-04-04T11:34:33.521Z,4.60
2023-04-04T11:35:58.863Z,4.72
2023-04-04T11:37:19.494Z,4.40
2023-04-04T11:38:40.433Z,5.18
2023-04-04T11:40:09.576Z,5.00
2023-04-04T11:41:43.566Z,4.65
2023-04-04T11:43:08.304Z,4.55
2023-04-04T11:44:32.134Z,5.20
2023-04-04T11:45:53.213Z,4.60
2023-04-04T11:47:13.934Z,4.80
2023-04-04T11:48:34.906Z,4.28
2023-04-04T11:49:57.313Z,4.85
2023-04-04T11:51:19.047Z,4.32
2023-04-04T11:52:40.941Z,4.45
2023-04-04T11:54:01.905Z,4.95
2023-04-04T11:55:22.645Z,5.13
2023-04-04T11:56:44.236Z,4.97
2023-04-04T11:58:13.269Z,4.55
2023-04-04T11:59:40.054Z,5.40
2023-04-04T12:01:00.462Z,4.90
2023-04-04T12:02:24.034Z,4.90
2023-04-04T12:03:44.677Z,4.78
2023-04-04T12:05:06.319Z,5.13
2023-04-04T12:06:29.979Z,4.28
2023-04-04T12:07:51.489Z,4.38
2023-04-04T12:09:11.925Z,4.85
2023-04-04T12:10:35.206Z,5.40
2023-04-04T12:11:55.943Z,5.85
2023-04-04T12:13:16.429Z,5.28
2023-04-04T12:14:38.694Z,4.70
2023-04-04T12:15:59.252Z,4.85
2023-04-04T12:17:20.104Z,5.07
2023-04-04T12:18:40.483Z,4.60
2023-04-04T12:20:01.413Z,4.95
2023-04-04T12:21:22.077Z,5.00
2023-04-04T12:22:45.859Z,5.93
2023-04-04T12:24:07.381Z,5.05
2023-04-04T12:25:28.222Z,4.45
2023-04-04T12:26:51.002Z,5.70
2023-04-04T12:28:11.991Z,5.18
2023-04-04T12:29:33.189Z,4.80
2023-04-04T12:30:55.125Z,5.20
2023-04-04T12:32:15.746Z,4.95
2023-04-04T12:33:36.597Z,4.97
2023-04-04T12:35:01.060Z,5.10
2023-04-04T12:36:28.340Z,5.28
2023-04-04T12:38:06.909Z,5.25
2023-04-04T12:39:31.243Z,5.05
2023-04-04T12:41:01.608Z,5.85
2023-04-04T12:42:25.197Z,4.72
2023-04-04T12:43:46.950Z,5.50
2023-04-04T12:45:08.803Z,4.80
2023-04-04T12:46:35.941Z,5.35
2023-04-04T12:47:57.264Z,4.80
2023-04-04T12:49:20.978Z,4.85
2023-04-04T12:50:52.232Z,4.95
2023-04-04T12:52:17.830Z,5.50
2023-04-04T12:53:51.256Z,5.13
2023-04-04T12:55:12.524Z,4.93
2023-04-04T12:56:34.063Z,5.30
2023-04-04T12:57:55.098Z,5.05
2023-04-04T12:59:15.553Z,4.78
2023-04-04T13:00:36.162Z,4.82
2023-04-04T13:01:58.265Z,5.40
2023-04-04T13:03:21.451Z,5.10
2023-04-04T13:04:45.573Z,4.75
2023-04-04T13:06:12.029Z,5.20
2023-04-04T13:07:33.565Z,5.25
2023-04-04T13:08:54.919Z,4.75
2023-04-04T13:11:57.436Z,5.20
2023-04-04T13:13:34.463Z,5.03
2023-04-04T13:14:59.240Z,5.70
2023-04-04T13:16:31.000Z,5.88
2023-04-04T13:17:53.152Z,5.45
2023-04-04T13:19:13.708Z,5.70
2023-04-04T13:20:34.419Z,5.60
2023-04-04T13:21:55.215Z,5.28
2023-04-04T13:23:15.853Z,4.57
2023-04-04T13:24:36.224Z,4.93
2023-04-04T13:25:56.997Z,5.53
2023-04-04T13:27:17.767Z,5.30
2023-04-04T13:28:38.785Z,4.90
2023-04-04T13:29:59.350Z,5.25
2023-04-04T13:31:20.309Z,5.15
2023-04-04T13:32:41.133Z,5.45
2023-04-04T13:34:03.146Z,5.30
2023-04-04T13:35:23.901Z,5.60
2023-04-04T13:36:44.405Z,5.45
2023-04-04T13:38:04.945Z,4.97
2023-04-04T13:39:25.306Z,5.18
2023-04-04T13:40:46.006Z,5.40
2023-04-04T13:42:06.912Z,5.80
2023-04-04T13:43:27.804Z,5.50
2023-04-04T13:44:48.217Z,5.27
2023-04-04T13:46:09.053Z,5.70
2023-04-04T13:47:29.179Z,4.93
2023-04-04T13:48:49.543Z,4.60
2023-04-04T13:50:11.847Z,4.88
2023-04-04T13:51:32.525Z,4.80
2023-04-04T13:52:53.350Z,4.20
2023-04-04T13:54:14.027Z,5.45
2023-04-04T13:55:34.560Z,4.97
2023-04-04T13:56:55.838Z,5.80
2023-04-04T13:58:16.756Z,4.90
2023-04-04T13:59:37.580Z,4.83
2023-04-04T14:00:58.230Z,4.85
2023-04-04T14:02:19.005Z,4.40
2023-04-04T14:03:39.687Z,5.15
2023-04-04T14:05:00.396Z,5.25
2023-04-04T14:06:22.536Z,4.88
2023-04-04T14:07:43.287Z,5.22
2023-04-04T14:09:04.065Z,5.70
2023-04-04T14:10:24.904Z,5.20
2023-04-04T14:11:45.522Z,5.03
2023-04-04T14:13:06.555Z,4.78
2023-04-04T14:14:27.157Z,4.43
2023-04-04T14:15:48.008Z,5.10
2023-04-04T14:17:08.492Z,4.90
2023-04-04T14:18:29.159Z,4.57
2023-04-04T14:19:50.078Z,4.65
2023-04-04T14:21:11.119Z,5.03
2023-04-04T14:22:33.173Z,4.47
2023-04-04T14:23:53.898Z,4.57
2023-04-04T14:25:15.592Z,4.53
2023-04-04T14:26:36.039Z,4.70
2023-04-04T14:27:56.831Z,4.95
2023-04-04T14:29:17.598Z,4.88
2023-04-04T14:30:38.554Z,4.75
2023-04-04T14:31:59.630Z,5.38
2023-04-04T14:33:20.178Z,4.93
2023-04-04T14:34:41.054Z,4.90
2023-04-04T14:36:01.783Z,5.00
2023-04-04T14:37:22.646Z,4.63
2023-04-04T14:38:44.725Z,4.65
2023-04-04T14:40:06.182Z,4.93
2023-04-04T14:41:26.913Z,4.82
2023-04-04T14:42:47.660Z,4.95
2023-04-04T14:44:08.394Z,4.97
2023-04-04T14:45:29.320Z,4.85
2023-04-04T14:46:52.006Z,5.38
2023-04-04T14:48:12.297Z,5.07
2023-04-04T14:49:32.910Z,4.90
2023-04-04T14:50:53.954Z,4.88
2023-04-04T14:52:14.641Z,4.63
2023-04-04T14:53:35.340Z,4.70
2023-04-04T14:54:58.072Z,4.47
2023-04-04T14:56:20.158Z,5.00
2023-04-04T14:57:57.091Z,4.80
2023-04-04T14:59:21.944Z,4.60
2023-04-04T15:00:42.762Z,5.13
2023-04-04T15:02:03.554Z,4.63
2023-04-04T15:03:24.095Z,5.28
2023-04-04T15:04:45.138Z,4.80
2023-04-04T15:06:06.253Z,4.70
2023-04-04T15:07:27.063Z,4.30
2023-04-04T15:08:47.921Z,4.70
2023-04-04T15:10:10.492Z,4.68
2023-04-04T15:11:31.529Z,4.88
2023-04-04T15:12:52.483Z,4.97
2023-04-04T15:14:13.286Z,4.78
2023-04-04T15:15:33.679Z,4.95
2023-04-04T15:16:54.836Z,4.22
2023-04-04T15:18:15.790Z,4.57
2023-04-04T15:19:36.589Z,4.82
2023-04-04T15:20:57.972Z,5.05
2023-04-04T15:22:18.605Z,4.88
2023-04-04T15:23:39.266Z,4.47
2023-04-04T15:24:59.801Z,5.30
2023-04-04T15:26:21.816Z,4.88
2023-04-04T15:27:42.193Z,4.95
2023-04-04T15:29:02.902Z,5.13
2023-04-04T15:30:23.886Z,4.60
2023-04-04T15:31:44.593Z,4.80
2023-04-04T15:33:05.901Z,4.78
2023-04-04T15:34:26.613Z,5.20
2023-04-04T15:35:47.175Z,4.75
2023-04-04T15:37:07.836Z,4.88
2023-04-04T15:38:28.449Z,4.97
2023-04-04T15:39:53.617Z,4.63
2023-04-04T15:41:14.813Z,4.78
2023-04-04T15:42:36.893Z,5.13
2023-04-04T15:43:57.288Z,4.47
2023-04-04T15:45:17.878Z,4.55
2023-04-04T15:46:38.705Z,4.78
2023-04-04T15:47:59.429Z,4.87
2023-04-04T15:49:20.147Z,4.60
2023-04-04T15:50:41.120Z,5.30
2023-04-04T15:52:02.960Z,4.78
2023-04-04T15:54:44.322Z,5.38
2023-04-04T15:56:05.054Z,4.70
2023-04-04T15:57:26.077Z,5.25
2023-04-04T15:58:48.025Z,4.95
2023-04-04T16:00:09.853Z,5.03
2023-04-04T16:01:32.018Z,5.43
2023-04-04T16:02:52.792Z,5.50
2023-04-04T16:04:13.453Z,5.55
2023-04-04T16:05:34.320Z,5.22
2023-04-04T16:06:55.214Z,4.60
2023-04-04T16:08:16.425Z,5.30
2023-04-04T16:09:37.256Z,5.47
2023-04-04T16:10:58.292Z,5.85
2023-04-04T16:12:18.769Z,5.45
2023-04-04T16:13:39.453Z,5.72
2023-04-04T16:15:01.711Z,5.17
2023-04-04T16:16:22.615Z,5.15
2023-04-04T16:17:43.162Z,5.68
2023-04-04T16:19:03.757Z,5.00
2023-04-04T16:20:25.472Z,5.65
2023-04-04T16:23:07.228Z,4.90
2023-04-04T16:24:28.290Z,5.30
2023-04-04T16:25:48.919Z,5.47
2023-04-04T16:27:09.696Z,5.28
2023-04-04T16:28:30.791Z,6.00
2023-04-04T16:31:14.464Z,5.07
2023-04-04T16:32:34.998Z,5.22
2023-04-04T16:33:55.595Z,5.15
2023-04-04T16:35:16.387Z,5.10
2023-04-04T16:36:37.214Z,5.47
2023-04-04T16:37:57.941Z,6.07
2023-04-04T16:39:18.642Z,6.50
2023-04-04T16:40:39.509Z,6.65
2023-04-04T16:41:59.900Z,6.20
2023-04-04T16:43:20.760Z,6.50
2023-04-04T16:44:41.535Z,6.25
2023-04-04T16:46:04.206Z,6.30
2023-04-04T16:47:26.816Z,6.50
2023-04-04T16:48:49.255Z,6.45
2023-04-04T16:50:11.033Z,6.43
2023-04-04T16:51:31.596Z,7.03
2023-04-04T16:52:52.308Z,6.30
2023-04-04T16:54:13.127Z,6.35
2023-04-04T16:55:33.449Z,6.20
2023-04-04T16:56:54.416Z,6.78
2023-04-04T16:58:15.310Z,6.50
2023-04-04T16:59:36.180Z,6.93
2023-04-04T17:00:56.977Z,6.43
2023-04-04T17:02:17.646Z,7.22
2023-04-04T17:03:39.814Z,7.03
2023-04-04T17:05:00.429Z,6.45
2023-04-04T17:06:21.252Z,7.22
2023-04-04T17:07:42.213Z,6.65
2023-04-04T17:09:02.520Z,6.50
2023-04-04T17:10:23.294Z,7.15
2023-04-04T17:11:44.184Z,6.53
2023-04-04T17:13:04.791Z,6.60
2023-04-04T17:14:25.800Z,6.25
2023-04-04T17:15:46.712Z,6.45
2023-04-04T17:17:07.962Z,6.35
2023-04-04T17:18:28.681Z,6.22
2023-04-04T17:19:51.009Z,6.45
2023-04-04T17:21:11.703Z,6.40
2023-04-04T17:22:32.465Z,7.05
2023-04-04T17:23:53.977Z,6.20
2023-04-04T17:25:14.929Z,6.97
2023-04-04T17:26:35.784Z,6.82
2023-04-04T17:27:56.939Z,6.90
2023-04-04T17:29:17.462Z,7.18
2023-04-04T17:30:38.369Z,6.53
2023-04-04T17:31:59.073Z,7.18
2023-04-04T17:33:19.874Z,6.55
2023-04-04T17:34:40.962Z,7.75
2023-04-04T17:36:03.930Z,6.85
2023-04-04T17:37:25.029Z,6.97
2023-04-04T17:38:45.795Z,6.88
2023-04-04T17:40:08.051Z,6.95
2023-04-04T17:41:28.892Z,6.82
2023-04-04T17:42:49.402Z,7.07
2023-04-04T17:44:10.135Z,7.63
2023-04-04T17:45:30.686Z,6.95
2023-04-04T17:46:51.444Z,7.03
2023-04-04T17:48:12.013Z,7.23
2023-04-04T17:49:32.865Z,8.25
2023-04-04T17:50:53.789Z,7.72
2023-04-04T17:52:16.174Z,7.80
2023-04-04T17:53:36.596Z,8.23
2023-04-04T17:54:57.482Z,7.65
2023-04-04T17:56:18.418Z,8.13
2023-04-04T17:57:39.717Z,8.43
2023-04-04T17:59:00.420Z,8.35
2023-04-04T18:00:22.053Z,9.10
2023-04-04T18:01:43.433Z,8.40
2023-04-04T18:03:04.845Z,8.85
2023-04-04T18:05:46.119Z,8.68
2023-04-04T18:07:06.880Z,8.02
2023-04-04T18:08:29.450Z,8.82
2023-04-04T18:09:50.520Z,8.52
2023-04-04T18:11:11.567Z,8.88
2023-04-04T18:12:33.041Z,9.18
2023-04-04T18:13:54.923Z,8.63
2023-04-04T18:15:15.599Z,8.63
2023-04-04T18:16:40.445Z,8.02
2023-04-04T18:18:01.763Z,9.05
2023-04-04T18:19:22.220Z,8.65
2023-04-04T18:20:43.045Z,9.20
2023-04-04T18:22:03.877Z,10.57
2023-04-04T18:23:24.649Z,10.50
2023-04-04T18:24:48.693Z,10.68
2023-04-04T18:26:09.581Z,10.50
2023-04-04T18:27:30.444Z,10.68
2023-04-04T18:28:51.293Z,9.40
2023-04-04T18:30:12.635Z,9.50
2023-04-04T18:31:33.536Z,9.50